Mill Hill, United Kingdom
Current Conditions -  °F | °C
As of 9:33 AM on Tuesday 21 Oct 2014 (Local Time) from EGWU Reporting Station
Moderate Rain Moderate Rain  
Wind Chill: 57°   Ceiling: 2300
Heat Index: 57°   Visibility: 2.5mi
Dew Point: 48°   Wind: 28mph
Humidity: 72%   Direction: 280°W
Pressure: 29.59"   Gusts: 44mph
Location:  51.62°N, 0.22°W
Report Text: EGWU 210833Z 28024G38KT 4000 RA BKN023 14/09 Q1002 GRN BECMG 9999 NSW SCT025 BLU
Loading
Personal Weather Stations






























Interactive Weather Map
Tropical Storm Tracking
New forecast layout! Learn more

10-Day Weather Forecast

Advertisements
Track Severe Weather on mobile